sensor_id;sensor_type;location;lat;lon;timestamp;P1;P2;P0
59546;PMS5003;45368;55.002;-1.592;2023-07-13T00:02:04;7;6;
59546;PMS5003;45368;55.002;-1.592;2023-07-13T00:04:31;6;6;
59546;PMS5003;45368;55.002;-1.592;2023-07-13T00:06:59;6;5;
59546;PMS5003;45368;55.002;-1.592;2023-07-13T00:09:27;7;6;
59546;PMS5003;45368;55.002;-1.592;2023-07-13T00:11:54;7;7;
59546;PMS5003;45368;55.002;-1.592;2023-07-13T00:14:23;6;6;
59546;PMS5003;45368;55.002;-1.592;2023-07-13T00:16:53;6;6;
59546;PMS5003;45368;55.002;-1.592;2023-07-13T00:19:20;7;6;
59546;PMS5003;45368;55.002;-1.592;2023-07-13T00:21:48;6;4;
59546;PMS5003;45368;55.002;-1.592;2023-07-13T00:24:16;6;4;
59546;PMS5003;45368;55.002;-1.592;2023-07-13T00:26:45;6;6;
59546;PMS5003;45368;55.002;-1.592;2023-07-13T00:29:12;8;7;
59546;PMS5003;45368;55.002;-1.592;2023-07-13T00:31:39;7;7;
59546;PMS5003;45368;55.002;-1.592;2023-07-13T00:34:07;7;7;
59546;PMS5003;45368;55.002;-1.592;2023-07-13T00:36:35;6;6;
59546;PMS5003;45368;55.002;-1.592;2023-07-13T00:39:03;7;7;
59546;PMS5003;45368;55.002;-1.592;2023-07-13T00:41:30;7;6;
59546;PMS5003;45368;55.002;-1.592;2023-07-13T00:43:58;8;7;
59546;PMS5003;45368;55.002;-1.592;2023-07-13T00:46:26;6;5;
59546;PMS5003;45368;55.002;-1.592;2023-07-13T00:48:56;5;5;
59546;PMS5003;45368;55.002;-1.592;2023-07-13T00:51:30;7;7;
59546;PMS5003;45368;55.002;-1.592;2023-07-13T00:54:05;10;6;
59546;PMS5003;45368;55.002;-1.592;2023-07-13T00:56:36;6;6;
59546;PMS5003;45368;55.002;-1.592;2023-07-13T00:59:05;8;6;
59546;PMS5003;45368;55.002;-1.592;2023-07-13T01:01:34;7;6;
59546;PMS5003;45368;55.002;-1.592;2023-07-13T01:04:02;3;3;
59546;PMS5003;45368;55.002;-1.592;2023-07-13T01:06:30;5;4;
59546;PMS5003;45368;55.002;-1.592;2023-07-13T01:08:57;5;5;
59546;PMS5003;45368;55.002;-1.592;2023-07-13T01:11:26;5;5;
59546;PMS5003;45368;55.002;-1.592;2023-07-13T01:13:53;7;5;
59546;PMS5003;45368;55.002;-1.592;2023-07-13T01:16:23;4;4;
59546;PMS5003;45368;55.002;-1.592;2023-07-13T01:18:52;5;5;
59546;PMS5003;45368;55.002;-1.592;2023-07-13T01:21:20;4;4;
59546;PMS5003;45368;55.002;-1.592;2023-07-13T01:23:47;3;3;
59546;PMS5003;45368;55.002;-1.592;2023-07-13T01:26:14;4;4;
59546;PMS5003;45368;55.002;-1.592;2023-07-13T01:28:41;5;5;
59546;PMS5003;45368;55.002;-1.592;2023-07-13T01:31:10;5;4;
59546;PMS5003;45368;55.002;-1.592;2023-07-13T01:33:40;5;4;
59546;PMS5003;45368;55.002;-1.592;2023-07-13T01:36:08;4;4;
59546;PMS5003;45368;55.002;-1.592;2023-07-13T01:38:36;5;5;
59546;PMS5003;45368;55.002;-1.592;2023-07-13T01:41:03;5;4;
59546;PMS5003;45368;55.002;-1.592;2023-07-13T01:43:31;6;4;
59546;PMS5003;45368;55.002;-1.592;2023-07-13T01:45:57;5;3;
59546;PMS5003;45368;55.002;-1.592;2023-07-13T01:48:24;4;3;
59546;PMS5003;45368;55.002;-1.592;2023-07-13T01:50:51;5;4;
59546;PMS5003;45368;55.002;-1.592;2023-07-13T01:53:19;3;3;
59546;PMS5003;45368;55.002;-1.592;2023-07-13T01:55:47;3;3;
59546;PMS5003;45368;55.002;-1.592;2023-07-13T01:58:14;6;5;
59546;PMS5003;45368;55.002;-1.592;2023-07-13T02:00:41;4;4;
59546;PMS5003;45368;55.002;-1.592;2023-07-13T02:03:09;6;5;
59546;PMS5003;45368;55.002;-1.592;2023-07-13T02:05:36;4;4;
59546;PMS5003;45368;55.002;-1.592;2023-07-13T02:08:03;3;3;
59546;PMS5003;45368;55.002;-1.592;2023-07-13T02:10:31;3;3;
59546;PMS5003;45368;55.002;-1.592;2023-07-13T02:12:58;4;4;
59546;PMS5003;45368;55.002;-1.592;2023-07-13T02:15:24;3;3;
59546;PMS5003;45368;55.002;-1.592;2023-07-13T02:17:52;4;4;
59546;PMS5003;45368;55.002;-1.592;2023-07-13T02:20:20;4;4;
59546;PMS5003;45368;55.002;-1.592;2023-07-13T02:22:48;4;3;
59546;PMS5003;45368;55.002;-1.592;2023-07-13T02:25:14;3;3;
59546;PMS5003;45368;55.002;-1.592;2023-07-13T02:27:42;4;3;
59546;PMS5003;45368;55.002;-1.592;2023-07-13T02:30:10;4;4;
59546;PMS5003;45368;55.002;-1.592;2023-07-13T02:32:38;4;4;
59546;PMS5003;45368;55.002;-1.592;2023-07-13T02:35:05;3;3;
59546;PMS5003;45368;55.002;-1.592;2023-07-13T02:37:33;3;3;
59546;PMS5003;45368;55.002;-1.592;2023-07-13T02:40:01;4;4;
59546;PMS5003;45368;55.002;-1.592;2023-07-13T02:42:28;3;2;
59546;PMS5003;45368;55.002;-1.592;2023-07-13T02:44:55;4;3;
59546;PMS5003;45368;55.002;-1.592;2023-07-13T02:47:22;4;3;
59546;PMS5003;45368;55.002;-1.592;2023-07-13T02:49:50;3;3;
59546;PMS5003;45368;55.002;-1.592;2023-07-13T02:52:17;2;1;
59546;PMS5003;45368;55.002;-1.592;2023-07-13T02:54:45;4;4;
59546;PMS5003;45368;55.002;-1.592;2023-07-13T02:57:13;4;4;
59546;PMS5003;45368;55.002;-1.592;2023-07-13T02:59:41;3;3;
59546;PMS5003;45368;55.002;-1.592;2023-07-13T03:02:08;3;3;
59546;PMS5003;45368;55.002;-1.592;2023-07-13T03:04:36;4;4;
59546;PMS5003;45368;55.002;-1.592;2023-07-13T03:07:04;3;3;
59546;PMS5003;45368;55.002;-1.592;2023-07-13T03:09:32;5;5;
59546;PMS5003;45368;55.002;-1.592;2023-07-13T03:12:01;4;3;
59546;PMS5003;45368;55.002;-1.592;2023-07-13T03:14:28;3;3;
59546;PMS5003;45368;55.002;-1.592;2023-07-13T03:16:55;4;4;
59546;PMS5003;45368;55.002;-1.592;2023-07-13T03:19:22;3;2;
59546;PMS5003;45368;55.002;-1.592;2023-07-13T03:21:50;4;4;
59546;PMS5003;45368;55.002;-1.592;2023-07-13T03:24:18;3;3;
59546;PMS5003;45368;55.002;-1.592;2023-07-13T03:26:45;2;2;
59546;PMS5003;45368;55.002;-1.592;2023-07-13T03:29:12;4;3;
59546;PMS5003;45368;55.002;-1.592;2023-07-13T03:31:40;3;2;
59546;PMS5003;45368;55.002;-1.592;2023-07-13T03:34:08;2;2;
59546;PMS5003;45368;55.002;-1.592;2023-07-13T03:36:35;3;3;
59546;PMS5003;45368;55.002;-1.592;2023-07-13T03:39:03;2;1;
59546;PMS5003;45368;55.002;-1.592;2023-07-13T03:41:31;3;2;
59546;PMS5003;45368;55.002;-1.592;2023-07-13T03:43:58;3;3;
59546;PMS5003;45368;55.002;-1.592;2023-07-13T03:46:25;4;3;
59546;PMS5003;45368;55.002;-1.592;2023-07-13T03:48:53;3;2;
59546;PMS5003;45368;55.002;-1.592;2023-07-13T03:51:21;2;2;
59546;PMS5003;45368;55.002;-1.592;2023-07-13T03:53:49;2;2;
59546;PMS5003;45368;55.002;-1.592;2023-07-13T03:56:17;2;2;
59546;PMS5003;45368;55.002;-1.592;2023-07-13T03:58:46;1;1;
59546;PMS5003;45368;55.002;-1.592;2023-07-13T04:01:15;1;1;
59546;PMS5003;45368;55.002;-1.592;2023-07-13T04:03:44;3;2;
59546;PMS5003;45368;55.002;-1.592;2023-07-13T04:06:14;1;1;
59546;PMS5003;45368;55.002;-1.592;2023-07-13T04:08:42;2;2;
59546;PMS5003;45368;55.002;-1.592;2023-07-13T04:11:09;2;2;
59546;PMS5003;45368;55.002;-1.592;2023-07-13T04:13:36;5;3;
59546;PMS5003;45368;55.002;-1.592;2023-07-13T04:16:03;2;2;
59546;PMS5003;45368;55.002;-1.592;2023-07-13T04:18:31;3;1;
59546;PMS5003;45368;55.002;-1.592;2023-07-13T04:20:58;2;1;
59546;PMS5003;45368;55.002;-1.592;2023-07-13T04:23:26;1;1;
59546;PMS5003;45368;55.002;-1.592;2023-07-13T04:25:53;1;1;
59546;PMS5003;45368;55.002;-1.592;2023-07-13T04:28:21;1;1;
59546;PMS5003;45368;55.002;-1.592;2023-07-13T04:30:50;1;1;
59546;PMS5003;45368;55.002;-1.592;2023-07-13T04:33:17;1;1;
59546;PMS5003;45368;55.002;-1.592;2023-07-13T04:35:45;1;1;
59546;PMS5003;45368;55.002;-1.592;2023-07-13T04:38:13;3;2;
59546;PMS5003;45368;55.002;-1.592;2023-07-13T04:40:39;3;3;
59546;PMS5003;45368;55.002;-1.592;2023-07-13T04:43:08;1;1;
59546;PMS5003;45368;55.002;-1.592;2023-07-13T04:45:35;2;2;
59546;PMS5003;45368;55.002;-1.592;2023-07-13T04:48:03;3;3;
59546;PMS5003;45368;55.002;-1.592;2023-07-13T04:50:30;1;0;
59546;PMS5003;45368;55.002;-1.592;2023-07-13T04:52:57;2;1;
59546;PMS5003;45368;55.002;-1.592;2023-07-13T04:55:24;2;2;
59546;PMS5003;45368;55.002;-1.592;2023-07-13T04:57:52;3;3;
59546;PMS5003;45368;55.002;-1.592;2023-07-13T05:00:19;0;0;
59546;PMS5003;45368;55.002;-1.592;2023-07-13T05:02:46;1;1;
59546;PMS5003;45368;55.002;-1.592;2023-07-13T05:05:13;3;2;
59546;PMS5003;45368;55.002;-1.592;2023-07-13T05:07:41;2;1;
59546;PMS5003;45368;55.002;-1.592;2023-07-13T05:10:08;2;2;
59546;PMS5003;45368;55.002;-1.592;2023-07-13T05:12:36;1;1;
59546;PMS5003;45368;55.002;-1.592;2023-07-13T05:15:04;1;1;
59546;PMS5003;45368;55.002;-1.592;2023-07-13T05:17:32;0;0;
59546;PMS5003;45368;55.002;-1.592;2023-07-13T05:20:00;2;1;
59546;PMS5003;45368;55.002;-1.592;2023-07-13T05:22:29;2;2;
59546;PMS5003;45368;55.002;-1.592;2023-07-13T05:24:56;2;2;
59546;PMS5003;45368;55.002;-1.592;2023-07-13T05:27:23;2;1;
59546;PMS5003;45368;55.002;-1.592;2023-07-13T05:29:50;0;0;
59546;PMS5003;45368;55.002;-1.592;2023-07-13T05:32:17;1;1;
59546;PMS5003;45368;55.002;-1.592;2023-07-13T05:34:45;2;2;
59546;PMS5003;45368;55.002;-1.592;2023-07-13T05:37:12;0;0;
59546;PMS5003;45368;55.002;-1.592;2023-07-13T05:39:40;1;1;
59546;PMS5003;45368;55.002;-1.592;2023-07-13T05:42:07;2;2;
59546;PMS5003;45368;55.002;-1.592;2023-07-13T05:44:34;0;0;
59546;PMS5003;45368;55.002;-1.592;2023-07-13T05:47:02;2;2;
59546;PMS5003;45368;55.002;-1.592;2023-07-13T05:49:30;2;2;
59546;PMS5003;45368;55.002;-1.592;2023-07-13T05:51:57;2;2;
59546;PMS5003;45368;55.002;-1.592;2023-07-13T05:54:24;2;2;
59546;PMS5003;45368;55.002;-1.592;2023-07-13T05:56:51;2;2;
59546;PMS5003;45368;55.002;-1.592;2023-07-13T05:59:18;1;1;
59546;PMS5003;45368;55.002;-1.592;2023-07-13T06:01:46;3;3;
59546;PMS5003;45368;55.002;-1.592;2023-07-13T06:04:13;1;1;
59546;PMS5003;45368;55.002;-1.592;2023-07-13T06:06:40;2;1;
59546;PMS5003;45368;55.002;-1.592;2023-07-13T06:09:07;4;3;
59546;PMS5003;45368;55.002;-1.592;2023-07-13T06:11:35;2;2;
59546;PMS5003;45368;55.002;-1.592;2023-07-13T06:14:02;1;1;
59546;PMS5003;45368;55.002;-1.592;2023-07-13T06:16:29;2;2;
59546;PMS5003;45368;55.002;-1.592;2023-07-13T06:18:56;2;2;
59546;PMS5003;45368;55.002;-1.592;2023-07-13T06:21:23;3;2;
59546;PMS5003;45368;55.002;-1.592;2023-07-13T06:23:51;1;1;
59546;PMS5003;45368;55.002;-1.592;2023-07-13T06:26:19;4;3;
59546;PMS5003;45368;55.002;-1.592;2023-07-13T06:28:47;1;1;
59546;PMS5003;45368;55.002;-1.592;2023-07-13T06:31:15;3;3;
59546;PMS5003;45368;55.002;-1.592;2023-07-13T06:33:43;4;3;
59546;PMS5003;45368;55.002;-1.592;2023-07-13T06:36:10;2;2;
59546;PMS5003;45368;55.002;-1.592;2023-07-13T06:38:38;2;2;
59546;PMS5003;45368;55.002;-1.592;2023-07-13T06:41:07;1;1;
59546;PMS5003;45368;55.002;-1.592;2023-07-13T06:43:35;2;2;
59546;PMS5003;45368;55.002;-1.592;2023-07-13T06:46:02;1;1;
59546;PMS5003;45368;55.002;-1.592;2023-07-13T06:48:30;2;2;
59546;PMS5003;45368;55.002;-1.592;2023-07-13T06:50:57;1;0;
59546;PMS5003;45368;55.002;-1.592;2023-07-13T06:53:24;2;1;
59546;PMS5003;45368;55.002;-1.592;2023-07-13T06:55:51;2;2;
59546;PMS5003;45368;55.002;-1.592;2023-07-13T06:58:19;0;0;
59546;PMS5003;45368;55.002;-1.592;2023-07-13T07:00:49;0;0;
59546;PMS5003;45368;55.002;-1.592;2023-07-13T07:03:18;1;1;
59546;PMS5003;45368;55.002;-1.592;2023-07-13T07:05:45;1;0;
59546;PMS5003;45368;55.002;-1.592;2023-07-13T07:08:13;1;0;
59546;PMS5003;45368;55.002;-1.592;2023-07-13T07:10:41;1;1;
59546;PMS5003;45368;55.002;-1.592;2023-07-13T07:13:08;0;0;
59546;PMS5003;45368;55.002;-1.592;2023-07-13T07:15:35;2;2;
59546;PMS5003;45368;55.002;-1.592;2023-07-13T07:18:03;1;0;
59546;PMS5003;45368;55.002;-1.592;2023-07-13T07:20:31;3;0;
59546;PMS5003;45368;55.002;-1.592;2023-07-13T07:22:58;1;0;
59546;PMS5003;45368;55.002;-1.592;2023-07-13T07:25:26;1;1;
59546;PMS5003;45368;55.002;-1.592;2023-07-13T07:27:54;2;2;
59546;PMS5003;45368;55.002;-1.592;2023-07-13T07:30:21;1;0;
59546;PMS5003;45368;55.002;-1.592;2023-07-13T07:32:48;1;1;
59546;PMS5003;45368;55.002;-1.592;2023-07-13T07:35:16;0;0;
59546;PMS5003;45368;55.002;-1.592;2023-07-13T07:37:44;0;0;
59546;PMS5003;45368;55.002;-1.592;2023-07-13T07:40:11;0;0;
59546;PMS5003;45368;55.002;-1.592;2023-07-13T07:42:39;0;0;
59546;PMS5003;45368;55.002;-1.592;2023-07-13T07:45:07;0;0;
59546;PMS5003;45368;55.002;-1.592;2023-07-13T07:47:34;1;1;
59546;PMS5003;45368;55.002;-1.592;2023-07-13T07:50:02;1;1;
59546;PMS5003;45368;55.002;-1.592;2023-07-13T07:52:30;1;1;
59546;PMS5003;45368;55.002;-1.592;2023-07-13T07:54:57;1;1;
59546;PMS5003;45368;55.002;-1.592;2023-07-13T07:57:25;1;1;
59546;PMS5003;45368;55.002;-1.592;2023-07-13T07:59:52;1;0;
59546;PMS5003;45368;55.002;-1.592;2023-07-13T08:02:19;1;0;
59546;PMS5003;45368;55.002;-1.592;2023-07-13T08:04:47;1;0;
59546;PMS5003;45368;55.002;-1.592;2023-07-13T08:07:15;2;1;
59546;PMS5003;45368;55.002;-1.592;2023-07-13T08:09:41;1;1;
59546;PMS5003;45368;55.002;-1.592;2023-07-13T08:12:09;1;1;
59546;PMS5003;45368;55.002;-1.592;2023-07-13T08:14:36;2;2;
59546;PMS5003;45368;55.002;-1.592;2023-07-13T08:17:04;1;1;
59546;PMS5003;45368;55.002;-1.592;2023-07-13T08:19:32;1;1;
59546;PMS5003;45368;55.002;-1.592;2023-07-13T08:21:59;2;2;
59546;PMS5003;45368;55.002;-1.592;2023-07-13T08:24:27;1;0;
59546;PMS5003;45368;55.002;-1.592;2023-07-13T08:26:55;2;2;
59546;PMS5003;45368;55.002;-1.592;2023-07-13T08:29:22;3;3;
59546;PMS5003;45368;55.002;-1.592;2023-07-13T08:31:50;4;2;
59546;PMS5003;45368;55.002;-1.592;2023-07-13T08:34:17;2;2;
59546;PMS5003;45368;55.002;-1.592;2023-07-13T08:36:44;3;3;
59546;PMS5003;45368;55.002;-1.592;2023-07-13T08:39:12;1;1;
59546;PMS5003;45368;55.002;-1.592;2023-07-13T08:41:40;2;2;
59546;PMS5003;45368;55.002;-1.592;2023-07-13T08:44:13;1;1;
59546;PMS5003;45368;55.002;-1.592;2023-07-13T08:46:50;4;4;
59546;PMS5003;45368;55.002;-1.592;2023-07-13T08:49:21;3;2;
59546;PMS5003;45368;55.002;-1.592;2023-07-13T08:51:50;3;2;
59546;PMS5003;45368;55.002;-1.592;2023-07-13T08:54:21;5;3;
59546;PMS5003;45368;55.002;-1.592;2023-07-13T08:56:55;2;1;
59546;PMS5003;45368;55.002;-1.592;2023-07-13T08:59:26;2;1;
59546;PMS5003;45368;55.002;-1.592;2023-07-13T09:02:00;4;2;
59546;PMS5003;45368;55.002;-1.592;2023-07-13T09:04:43;3;2;
59546;PMS5003;45368;55.002;-1.592;2023-07-13T09:07:19;3;3;
59546;PMS5003;45368;55.002;-1.592;2023-07-13T09:09:59;0;0;
59546;PMS5003;45368;55.002;-1.592;2023-07-13T09:12:41;0;0;
59546;PMS5003;45368;55.002;-1.592;2023-07-13T09:15:21;2;2;
59546;PMS5003;45368;55.002;-1.592;2023-07-13T09:17:56;4;2;
59546;PMS5003;45368;55.002;-1.592;2023-07-13T09:20:29;3;0;
59546;PMS5003;45368;55.002;-1.592;2023-07-13T09:23:01;3;2;
59546;PMS5003;45368;55.002;-1.592;2023-07-13T09:25:35;4;3;
59546;PMS5003;45368;55.002;-1.592;2023-07-13T09:28:08;1;1;
59546;PMS5003;45368;55.002;-1.592;2023-07-13T09:30:42;2;2;
59546;PMS5003;45368;55.002;-1.592;2023-07-13T09:33:16;3;2;
59546;PMS5003;45368;55.002;-1.592;2023-07-13T09:35:43;1;1;
59546;PMS5003;45368;55.002;-1.592;2023-07-13T09:38:12;0;0;
59546;PMS5003;45368;55.002;-1.592;2023-07-13T09:40:44;2;2;
59546;PMS5003;45368;55.002;-1.592;2023-07-13T09:43:21;2;2;
59546;PMS5003;45368;55.002;-1.592;2023-07-13T09:45:49;3;2;
59546;PMS5003;45368;55.002;-1.592;2023-07-13T09:48:17;1;1;
59546;PMS5003;45368;55.002;-1.592;2023-07-13T09:50:45;1;1;
59546;PMS5003;45368;55.002;-1.592;2023-07-13T09:53:13;2;2;
59546;PMS5003;45368;55.002;-1.592;2023-07-13T09:55:43;3;2;
59546;PMS5003;45368;55.002;-1.592;2023-07-13T09:58:12;0;0;
59546;PMS5003;45368;55.002;-1.592;2023-07-13T10:00:42;2;2;
59546;PMS5003;45368;55.002;-1.592;2023-07-13T10:03:20;1;1;
59546;PMS5003;45368;55.002;-1.592;2023-07-13T10:05:49;2;2;
59546;PMS5003;45368;55.002;-1.592;2023-07-13T10:08:17;2;2;
59546;PMS5003;45368;55.002;-1.592;2023-07-13T10:10:49;3;1;
59546;PMS5003;45368;55.002;-1.592;2023-07-13T10:13:23;2;1;
59546;PMS5003;45368;55.002;-1.592;2023-07-13T10:15:54;2;1;
59546;PMS5003;45368;55.002;-1.592;2023-07-13T10:18:22;1;1;
59546;PMS5003;45368;55.002;-1.592;2023-07-13T10:20:53;2;1;
59546;PMS5003;45368;55.002;-1.592;2023-07-13T10:23:26;3;2;
59546;PMS5003;45368;55.002;-1.592;2023-07-13T10:25:57;1;1;
59546;PMS5003;45368;55.002;-1.592;2023-07-13T10:28:29;1;1;
59546;PMS5003;45368;55.002;-1.592;2023-07-13T10:30:59;2;1;
59546;PMS5003;45368;55.002;-1.592;2023-07-13T10:33:29;1;1;
59546;PMS5003;45368;55.002;-1.592;2023-07-13T10:35:59;1;0;
59546;PMS5003;45368;55.002;-1.592;2023-07-13T10:38:32;2;2;
59546;PMS5003;45368;55.002;-1.592;2023-07-13T10:41:01;2;1;
59546;PMS5003;45368;55.002;-1.592;2023-07-13T10:43:33;1;1;
59546;PMS5003;45368;55.002;-1.592;2023-07-13T10:46:03;2;2;
59546;PMS5003;45368;55.002;-1.592;2023-07-13T10:48:32;0;0;
59546;PMS5003;45368;55.002;-1.592;2023-07-13T10:51:01;1;1;
59546;PMS5003;45368;55.002;-1.592;2023-07-13T10:53:32;2;2;
59546;PMS5003;45368;55.002;-1.592;2023-07-13T10:56:02;2;2;
59546;PMS5003;45368;55.002;-1.592;2023-07-13T10:58:32;2;2;
59546;PMS5003;45368;55.002;-1.592;2023-07-13T11:01:06;2;2;
59546;PMS5003;45368;55.002;-1.592;2023-07-13T11:03:35;2;1;
59546;PMS5003;45368;55.002;-1.592;2023-07-13T11:06:06;2;1;
59546;PMS5003;45368;55.002;-1.592;2023-07-13T11:08:37;1;1;
59546;PMS5003;45368;55.002;-1.592;2023-07-13T11:11:34;0;0;
59546;PMS5003;45368;55.002;-1.592;2023-07-13T11:14:04;4;2;
59546;PMS5003;45368;55.002;-1.592;2023-07-13T11:16:52;2;2;
59546;PMS5003;45368;55.002;-1.592;2023-07-13T11:19:40;1;1;
59546;PMS5003;45368;55.002;-1.592;2023-07-13T11:22:11;1;1;
59546;PMS5003;45368;55.002;-1.592;2023-07-13T11:24:51;2;1;
59546;PMS5003;45368;55.002;-1.592;2023-07-13T11:27:36;1;1;
59546;PMS5003;45368;55.002;-1.592;2023-07-13T11:30:08;0;0;
59546;PMS5003;45368;55.002;-1.592;2023-07-13T11:32:50;0;0;
59546;PMS5003;45368;55.002;-1.592;2023-07-13T11:35:28;2;2;
59546;PMS5003;45368;55.002;-1.592;2023-07-13T11:37:55;3;1;
59546;PMS5003;45368;55.002;-1.592;2023-07-13T11:40:23;2;2;
59546;PMS5003;45368;55.002;-1.592;2023-07-13T11:42:58;2;1;
59546;PMS5003;45368;55.002;-1.592;2023-07-13T11:45:26;1;1;
59546;PMS5003;45368;55.002;-1.592;2023-07-13T11:47:54;3;2;
59546;PMS5003;45368;55.002;-1.592;2023-07-13T11:50:22;0;0;
59546;PMS5003;45368;55.002;-1.592;2023-07-13T11:52:51;1;1;
59546;PMS5003;45368;55.002;-1.592;2023-07-13T11:55:21;2;1;
59546;PMS5003;45368;55.002;-1.592;2023-07-13T11:57:50;0;0;
59546;PMS5003;45368;55.002;-1.592;2023-07-13T12:00:22;0;0;
59546;PMS5003;45368;55.002;-1.592;2023-07-13T12:02:55;1;1;
59546;PMS5003;45368;55.002;-1.592;2023-07-13T12:05:25;2;2;
59546;PMS5003;45368;55.002;-1.592;2023-07-13T12:07:53;1;1;
59546;PMS5003;45368;55.002;-1.592;2023-07-13T12:10:21;1;1;
59546;PMS5003;45368;55.002;-1.592;2023-07-13T12:12:52;3;2;
59546;PMS5003;45368;55.002;-1.592;2023-07-13T12:15:21;1;1;
59546;PMS5003;45368;55.002;-1.592;2023-07-13T12:17:49;1;1;
59546;PMS5003;45368;55.002;-1.592;2023-07-13T12:20:19;1;1;
59546;PMS5003;45368;55.002;-1.592;2023-07-13T12:22:50;1;1;
59546;PMS5003;45368;55.002;-1.592;2023-07-13T12:25:18;1;1;
59546;PMS5003;45368;55.002;-1.592;2023-07-13T12:27:48;1;1;
59546;PMS5003;45368;55.002;-1.592;2023-07-13T12:30:22;2;1;
59546;PMS5003;45368;55.002;-1.592;2023-07-13T12:32:55;1;1;
59546;PMS5003;45368;55.002;-1.592;2023-07-13T12:35:23;3;2;
59546;PMS5003;45368;55.002;-1.592;2023-07-13T12:37:52;1;1;
59546;PMS5003;45368;55.002;-1.592;2023-07-13T12:40:20;2;2;
59546;PMS5003;45368;55.002;-1.592;2023-07-13T12:42:59;1;1;
59546;PMS5003;45368;55.002;-1.592;2023-07-13T12:45:28;2;1;
59546;PMS5003;45368;55.002;-1.592;2023-07-13T12:47:57;1;1;
59546;PMS5003;45368;55.002;-1.592;2023-07-13T12:50:29;0;0;
59546;PMS5003;45368;55.002;-1.592;2023-07-13T12:53:03;1;1;
59546;PMS5003;45368;55.002;-1.592;2023-07-13T12:55:39;1;0;
59546;PMS5003;45368;55.002;-1.592;2023-07-13T12:58:09;2;2;
59546;PMS5003;45368;55.002;-1.592;2023-07-13T13:00:47;1;1;
59546;PMS5003;45368;55.002;-1.592;2023-07-13T13:03:18;1;1;
59546;PMS5003;45368;55.002;-1.592;2023-07-13T13:05:56;1;1;
59546;PMS5003;45368;55.002;-1.592;2023-07-13T13:08:25;1;1;
59546;PMS5003;45368;55.002;-1.592;2023-07-13T13:10:52;1;0;
59546;PMS5003;45368;55.002;-1.592;2023-07-13T13:13:20;0;0;
59546;PMS5003;45368;55.002;-1.592;2023-07-13T13:15:48;2;2;
59546;PMS5003;45368;55.002;-1.592;2023-07-13T13:18:16;2;2;
59546;PMS5003;45368;55.002;-1.592;2023-07-13T13:20:45;3;2;
59546;PMS5003;45368;55.002;-1.592;2023-07-13T13:23:13;2;2;
59546;PMS5003;45368;55.002;-1.592;2023-07-13T13:25:41;2;2;
59546;PMS5003;45368;55.002;-1.592;2023-07-13T13:28:12;1;1;
59546;PMS5003;45368;55.002;-1.592;2023-07-13T13:30:40;2;2;
59546;PMS5003;45368;55.002;-1.592;2023-07-13T13:33:09;2;2;
59546;PMS5003;45368;55.002;-1.592;2023-07-13T13:35:38;1;1;
59546;PMS5003;45368;55.002;-1.592;2023-07-13T13:38:09;2;2;
59546;PMS5003;45368;55.002;-1.592;2023-07-13T13:40:38;2;2;
59546;PMS5003;45368;55.002;-1.592;2023-07-13T13:43:09;4;2;
59546;PMS5003;45368;55.002;-1.592;2023-07-13T13:45:41;1;1;
59546;PMS5003;45368;55.002;-1.592;2023-07-13T13:48:12;4;2;
59546;PMS5003;45368;55.002;-1.592;2023-07-13T13:50:42;2;1;
59546;PMS5003;45368;55.002;-1.592;2023-07-13T13:53:11;1;1;
59546;PMS5003;45368;55.002;-1.592;2023-07-13T13:55:39;1;1;
59546;PMS5003;45368;55.002;-1.592;2023-07-13T13:58:07;2;2;
59546;PMS5003;45368;55.002;-1.592;2023-07-13T14:00:35;2;1;
59546;PMS5003;45368;55.002;-1.592;2023-07-13T14:03:04;0;0;
59546;PMS5003;45368;55.002;-1.592;2023-07-13T14:05:31;1;1;
59546;PMS5003;45368;55.002;-1.592;2023-07-13T14:07:59;1;1;
59546;PMS5003;45368;55.002;-1.592;2023-07-13T14:10:27;1;1;
59546;PMS5003;45368;55.002;-1.592;2023-07-13T14:12:54;1;0;
59546;PMS5003;45368;55.002;-1.592;2023-07-13T14:15:24;2;1;
59546;PMS5003;45368;55.002;-1.592;2023-07-13T14:17:54;2;1;
59546;PMS5003;45368;55.002;-1.592;2023-07-13T14:20:23;2;2;
59546;PMS5003;45368;55.002;-1.592;2023-07-13T14:22:51;3;2;
59546;PMS5003;45368;55.002;-1.592;2023-07-13T14:25:20;0;0;
59546;PMS5003;45368;55.002;-1.592;2023-07-13T14:27:49;1;1;
59546;PMS5003;45368;55.002;-1.592;2023-07-13T14:30:20;2;2;
59546;PMS5003;45368;55.002;-1.592;2023-07-13T14:32:49;1;1;
59546;PMS5003;45368;55.002;-1.592;2023-07-13T14:35:18;2;1;
59546;PMS5003;45368;55.002;-1.592;2023-07-13T14:37:48;2;2;
59546;PMS5003;45368;55.002;-1.592;2023-07-13T14:40:16;2;1;
59546;PMS5003;45368;55.002;-1.592;2023-07-13T14:42:46;4;2;
59546;PMS5003;45368;55.002;-1.592;2023-07-13T14:45:14;1;1;
59546;PMS5003;45368;55.002;-1.592;2023-07-13T14:47:42;3;2;
59546;PMS5003;45368;55.002;-1.592;2023-07-13T14:50:14;1;0;
59546;PMS5003;45368;55.002;-1.592;2023-07-13T14:52:43;1;1;
59546;PMS5003;45368;55.002;-1.592;2023-07-13T14:55:12;1;1;
59546;PMS5003;45368;55.002;-1.592;2023-07-13T14:57:41;0;0;
59546;PMS5003;45368;55.002;-1.592;2023-07-13T15:00:12;1;1;
59546;PMS5003;45368;55.002;-1.592;2023-07-13T15:02:40;1;1;
59546;PMS5003;45368;55.002;-1.592;2023-07-13T15:05:14;3;2;
59546;PMS5003;45368;55.002;-1.592;2023-07-13T15:07:43;2;1;
59546;PMS5003;45368;55.002;-1.592;2023-07-13T15:10:13;2;2;
59546;PMS5003;45368;55.002;-1.592;2023-07-13T15:12:42;1;1;
59546;PMS5003;45368;55.002;-1.592;2023-07-13T15:15:10;2;2;
59546;PMS5003;45368;55.002;-1.592;2023-07-13T15:17:38;3;3;
59546;PMS5003;45368;55.002;-1.592;2023-07-13T15:20:14;3;2;
59546;PMS5003;45368;55.002;-1.592;2023-07-13T15:22:45;1;1;
59546;PMS5003;45368;55.002;-1.592;2023-07-13T15:25:16;1;1;
59546;PMS5003;45368;55.002;-1.592;2023-07-13T15:27:45;2;1;
59546;PMS5003;45368;55.002;-1.592;2023-07-13T15:30:13;1;1;
59546;PMS5003;45368;55.002;-1.592;2023-07-13T15:32:41;1;1;
59546;PMS5003;45368;55.002;-1.592;2023-07-13T15:35:15;2;1;
59546;PMS5003;45368;55.002;-1.592;2023-07-13T15:37:44;3;3;
59546;PMS5003;45368;55.002;-1.592;2023-07-13T15:40:13;1;1;
59546;PMS5003;45368;55.002;-1.592;2023-07-13T15:42:42;1;1;
59546;PMS5003;45368;55.002;-1.592;2023-07-13T15:45:14;1;1;
59546;PMS5003;45368;55.002;-1.592;2023-07-13T15:47:44;1;1;
59546;PMS5003;45368;55.002;-1.592;2023-07-13T15:50:13;1;1;
59546;PMS5003;45368;55.002;-1.592;2023-07-13T15:52:42;2;2;
59546;PMS5003;45368;55.002;-1.592;2023-07-13T15:55:12;1;1;
59546;PMS5003;45368;55.002;-1.592;2023-07-13T15:57:40;2;2;
59546;PMS5003;45368;55.002;-1.592;2023-07-13T16:00:13;2;2;
59546;PMS5003;45368;55.002;-1.592;2023-07-13T16:02:45;1;1;
59546;PMS5003;45368;55.002;-1.592;2023-07-13T16:05:12;0;0;
59546;PMS5003;45368;55.002;-1.592;2023-07-13T16:07:40;2;1;
59546;PMS5003;45368;55.002;-1.592;2023-07-13T16:10:09;1;1;
59546;PMS5003;45368;55.002;-1.592;2023-07-13T16:12:41;2;2;
59546;PMS5003;45368;55.002;-1.592;2023-07-13T16:15:11;1;1;
59546;PMS5003;45368;55.002;-1.592;2023-07-13T16:17:40;1;1;
59546;PMS5003;45368;55.002;-1.592;2023-07-13T16:20:08;1;0;
59546;PMS5003;45368;55.002;-1.592;2023-07-13T16:22:37;2;2;
59546;PMS5003;45368;55.002;-1.592;2023-07-13T16:25:12;2;1;
59546;PMS5003;45368;55.002;-1.592;2023-07-13T16:27:40;1;0;
59546;PMS5003;45368;55.002;-1.592;2023-07-13T16:30:11;0;0;
59546;PMS5003;45368;55.002;-1.592;2023-07-13T16:32:42;0;0;
59546;PMS5003;45368;55.002;-1.592;2023-07-13T16:35:09;1;1;
59546;PMS5003;45368;55.002;-1.592;2023-07-13T16:37:36;1;1;
59546;PMS5003;45368;55.002;-1.592;2023-07-13T16:40:11;0;0;
59546;PMS5003;45368;55.002;-1.592;2023-07-13T16:42:46;1;1;
59546;PMS5003;45368;55.002;-1.592;2023-07-13T16:45:14;1;1;
59546;PMS5003;45368;55.002;-1.592;2023-07-13T16:47:41;1;1;